createdAt,value
2022-07-29T00:00:02.288Z,1.40
2022-07-29T00:02:33.456Z,1.57
2022-07-29T00:05:00.344Z,1.57
2022-07-29T00:07:27.259Z,1.70
2022-07-29T00:09:54.046Z,1.90
2022-07-29T00:12:25.576Z,1.40
2022-07-29T00:14:57.910Z,1.53
2022-07-29T00:17:25.339Z,1.70
2022-07-29T00:19:52.320Z,1.40
2022-07-29T00:22:19.627Z,1.37
2022-07-29T00:24:48.872Z,1.30
2022-07-29T00:27:15.628Z,1.63
2022-07-29T00:29:42.394Z,1.47
2022-07-29T00:32:09.173Z,1.27
2022-07-29T00:34:54.413Z,1.50
2022-07-29T00:37:21.189Z,1.17
2022-07-29T00:39:48.022Z,1.40
2022-07-29T00:42:14.820Z,1.43
2022-07-29T00:44:42.268Z,1.40
2022-07-29T00:47:11.688Z,1.60
2022-07-29T00:49:42.713Z,1.60
2022-07-29T00:52:11.118Z,1.50
2022-07-29T00:54:44.834Z,1.47
2022-07-29T00:57:13.093Z,1.13
2022-07-29T00:59:40.318Z,1.33
2022-07-29T01:02:07.171Z,1.20
2022-07-29T01:04:34.874Z,1.30
2022-07-29T01:07:05.682Z,1.30
2022-07-29T01:09:43.053Z,1.80
2022-07-29T01:12:16.250Z,1.60
2022-07-29T01:14:43.729Z,1.50
2022-07-29T01:17:31.992Z,1.33
2022-07-29T01:20:05.094Z,1.20
2022-07-29T01:22:35.185Z,1.27
2022-07-29T01:25:24.441Z,1.50
2022-07-29T01:28:22.977Z,1.43
2022-07-29T01:30:53.598Z,1.53
2022-07-29T01:33:41.495Z,1.30
2022-07-29T01:36:14.315Z,1.30
2022-07-29T01:38:43.766Z,1.60
2022-07-29T01:41:15.609Z,1.60
2022-07-29T01:43:54.841Z,1.53
2022-07-29T01:46:40.750Z,1.70
2022-07-29T01:49:12.313Z,1.60
2022-07-29T01:51:46.649Z,1.60
2022-07-29T01:54:31.742Z,1.60
2022-07-29T01:57:00.936Z,1.40
2022-07-29T01:59:29.938Z,1.57
2022-07-29T02:02:00.198Z,1.37
2022-07-29T02:04:29.751Z,1.50
2022-07-29T02:07:02.312Z,1.47
2022-07-29T02:09:31.533Z,1.20
2022-07-29T02:12:02.224Z,1.43
2022-07-29T02:14:34.511Z,1.67
2022-07-29T02:17:03.363Z,1.60
2022-07-29T02:19:33.037Z,1.43
2022-07-29T02:22:01.544Z,1.00
2022-07-29T02:24:30.856Z,1.57
2022-07-29T02:27:00.434Z,1.33
2022-07-29T02:29:29.596Z,1.63
2022-07-29T02:31:59.469Z,1.30
2022-07-29T02:34:29.294Z,1.40
2022-07-29T02:36:56.923Z,1.50
2022-07-29T02:39:25.415Z,1.30
2022-07-29T02:41:59.464Z,1.30
2022-07-29T02:44:30.068Z,1.50
2022-07-29T02:47:42.169Z,1.50
2022-07-29T02:50:49.815Z,1.50
2022-07-29T02:53:23.024Z,1.67
2022-07-29T02:55:56.495Z,1.50
2022-07-29T02:58:29.797Z,1.37
2022-07-29T03:00:59.497Z,1.70
2022-07-29T03:03:31.214Z,1.40
2022-07-29T03:05:59.091Z,1.30
2022-07-29T03:08:26.065Z,1.30
2022-07-29T03:10:54.633Z,1.47
2022-07-29T03:13:21.613Z,1.90
2022-07-29T03:15:49.200Z,1.87
2022-07-29T03:18:16.644Z,1.40
2022-07-29T03:20:44.221Z,1.70
2022-07-29T03:23:11.046Z,1.73
2022-07-29T03:25:38.193Z,1.50
2022-07-29T03:28:05.132Z,1.90
2022-07-29T03:30:32.180Z,1.60
2022-07-29T03:32:59.053Z,1.70
2022-07-29T03:35:25.906Z,1.60
2022-07-29T03:37:52.760Z,1.80
2022-07-29T03:40:34.055Z,1.40
2022-07-29T03:43:01.953Z,1.47
2022-07-29T03:45:31.759Z,1.50
2022-07-29T03:48:09.399Z,1.70
2022-07-29T03:50:37.604Z,1.67
2022-07-29T03:53:04.752Z,1.43
2022-07-29T03:55:38.732Z,1.47
2022-07-29T03:58:07.689Z,1.50
2022-07-29T04:00:35.340Z,1.60
2022-07-29T04:03:04.655Z,1.70
2022-07-29T04:05:37.853Z,1.60
2022-07-29T04:08:04.949Z,1.63
2022-07-29T04:10:34.012Z,1.60
2022-07-29T04:13:01.093Z,1.40
2022-07-29T04:15:31.334Z,1.67
2022-07-29T04:17:59.741Z,1.83
2022-07-29T04:20:26.734Z,1.40
2022-07-29T04:22:53.544Z,1.60
2022-07-29T04:25:20.422Z,1.47
2022-07-29T04:28:04.049Z,1.70
2022-07-29T04:30:31.922Z,1.30
2022-07-29T04:32:59.079Z,1.50
2022-07-29T04:35:25.981Z,1.80
2022-07-29T04:37:52.729Z,1.57
2022-07-29T04:40:19.713Z,1.53
2022-07-29T04:42:47.811Z,1.70
2022-07-29T04:45:15.072Z,1.70
2022-07-29T04:47:43.164Z,1.50
2022-07-29T04:50:10.922Z,1.53
2022-07-29T04:52:38.120Z,1.30
2022-07-29T04:55:06.676Z,1.60
2022-07-29T04:57:33.789Z,1.37
2022-07-29T05:00:00.880Z,1.70
2022-07-29T05:02:27.726Z,1.47
2022-07-29T05:04:54.521Z,1.80
2022-07-29T05:07:21.457Z,1.60
2022-07-29T05:09:48.294Z,1.60
2022-07-29T05:12:15.084Z,1.53
2022-07-29T05:14:41.960Z,1.70
2022-07-29T05:17:09.057Z,1.30
2022-07-29T05:19:39.647Z,1.47
2022-07-29T05:22:07.195Z,1.37
2022-07-29T05:24:34.046Z,1.67
2022-07-29T05:27:00.956Z,1.93
2022-07-29T05:29:44.518Z,1.50
2022-07-29T05:32:13.382Z,1.97
2022-07-29T05:34:51.279Z,1.60
2022-07-29T05:37:22.025Z,1.40
2022-07-29T05:39:56.129Z,1.80
2022-07-29T05:42:24.385Z,1.67
2022-07-29T05:44:51.167Z,1.30
2022-07-29T05:47:18.062Z,1.63
2022-07-29T05:49:44.857Z,1.70
2022-07-29T05:52:11.662Z,1.27
2022-07-29T05:54:38.482Z,1.30
2022-07-29T05:57:06.325Z,1.60
2022-07-29T05:59:37.433Z,1.50
2022-07-29T06:02:06.084Z,1.47
2022-07-29T06:04:34.607Z,1.43
2022-07-29T06:07:02.695Z,1.47
2022-07-29T06:09:29.945Z,1.80
2022-07-29T06:11:57.201Z,1.80
2022-07-29T06:14:23.974Z,1.50
2022-07-29T06:16:50.912Z,1.50
2022-07-29T06:19:17.703Z,1.60
2022-07-29T06:21:45.153Z,1.67
2022-07-29T06:24:13.458Z,1.60
2022-07-29T06:26:41.340Z,1.60
2022-07-29T06:29:09.050Z,1.70
2022-07-29T06:31:35.783Z,1.50
2022-07-29T06:34:02.535Z,1.60
2022-07-29T06:36:30.467Z,1.60
2022-07-29T06:38:57.260Z,1.50
2022-07-29T06:41:25.427Z,1.77
2022-07-29T06:43:56.882Z,2.00
2022-07-29T06:46:24.128Z,1.40
2022-07-29T06:48:52.608Z,1.70
2022-07-29T06:51:22.846Z,1.30
2022-07-29T06:53:59.610Z,1.30
2022-07-29T06:56:39.109Z,1.48
2022-07-29T06:59:08.447Z,1.55
2022-07-29T07:01:37.133Z,1.42
2022-07-29T07:04:04.295Z,1.70
2022-07-29T07:06:31.071Z,1.60
2022-07-29T07:08:57.932Z,1.17
2022-07-29T07:11:24.751Z,1.25
2022-07-29T07:13:51.521Z,1.58
2022-07-29T07:16:18.515Z,1.70
2022-07-29T07:18:46.306Z,1.67
2022-07-29T07:21:19.266Z,1.67
2022-07-29T07:23:47.097Z,1.77
2022-07-29T07:26:13.878Z,1.40
2022-07-29T07:28:40.649Z,1.40
2022-07-29T07:31:07.379Z,1.40
2022-07-29T07:33:34.196Z,1.63
2022-07-29T07:36:01.041Z,1.63
2022-07-29T07:38:27.908Z,1.50
2022-07-29T07:40:55.362Z,1.70
2022-07-29T07:43:22.844Z,1.52
2022-07-29T07:45:49.709Z,1.48
2022-07-29T07:48:16.644Z,1.38
2022-07-29T07:50:44.709Z,1.15
2022-07-29T07:53:11.734Z,1.38
2022-07-29T07:58:29.632Z,1.75
2022-07-29T08:00:56.519Z,1.50
2022-07-29T08:03:23.368Z,1.60
2022-07-29T08:05:52.695Z,1.60
2022-07-29T08:08:19.719Z,1.60
2022-07-29T08:10:53.058Z,1.65
2022-07-29T08:13:25.273Z,1.45
2022-07-29T08:16:02.623Z,1.70
2022-07-29T08:18:31.869Z,1.52
2022-07-29T08:21:00.095Z,1.60
2022-07-29T08:23:32.944Z,2.00
2022-07-29T08:26:14.779Z,1.60
2022-07-29T08:28:47.120Z,1.50
2022-07-29T08:31:15.062Z,1.45
2022-07-29T08:33:42.129Z,1.35
2022-07-29T08:36:09.595Z,1.73
2022-07-29T08:38:36.369Z,1.50
2022-07-29T08:41:03.219Z,1.73
2022-07-29T08:43:30.197Z,1.50
2022-07-29T08:45:57.262Z,1.55
2022-07-29T08:48:25.812Z,1.60
2022-07-29T08:50:57.149Z,1.60
2022-07-29T08:53:27.795Z,1.85
2022-07-29T08:55:55.665Z,1.75
2022-07-29T08:58:24.783Z,1.70
2022-07-29T09:00:57.858Z,1.83
2022-07-29T09:03:30.631Z,1.83
2022-07-29T09:05:59.075Z,1.80
2022-07-29T09:08:26.570Z,1.50
2022-07-29T09:10:54.400Z,1.73
2022-07-29T09:13:21.155Z,1.42
2022-07-29T09:15:47.930Z,1.58
2022-07-29T09:18:39.972Z,1.52
2022-07-29T09:21:28.257Z,1.30
2022-07-29T09:24:09.811Z,1.50
2022-07-29T09:26:40.057Z,1.60
2022-07-29T09:29:11.333Z,1.58
2022-07-29T09:31:40.494Z,1.83
2022-07-29T09:34:08.484Z,1.85
2022-07-29T09:36:47.145Z,1.70
2022-07-29T09:39:15.523Z,1.60
2022-07-29T09:41:56.317Z,2.10
2022-07-29T09:44:24.240Z,1.90
2022-07-29T09:47:06.893Z,1.83
2022-07-29T09:49:35.452Z,1.75
2022-07-29T09:52:04.822Z,1.95
2022-07-29T09:54:37.588Z,1.60
2022-07-29T09:57:10.758Z,1.65
2022-07-29T09:59:37.599Z,2.00
2022-07-29T10:02:22.736Z,1.73
2022-07-29T10:04:50.843Z,1.80
2022-07-29T10:07:17.681Z,2.00
2022-07-29T10:09:54.259Z,1.98
2022-07-29T10:12:21.088Z,2.10
2022-07-29T10:14:48.427Z,2.45
2022-07-29T10:17:17.134Z,2.00
2022-07-29T10:19:44.218Z,1.90
2022-07-29T10:22:11.643Z,1.80
2022-07-29T10:24:39.693Z,1.55
2022-07-29T10:27:08.955Z,1.90
2022-07-29T10:29:36.799Z,2.00
2022-07-29T10:32:21.853Z,2.00
2022-07-29T10:35:19.200Z,2.00
2022-07-29T10:38:17.453Z,2.17
2022-07-29T10:41:32.074Z,1.63
2022-07-29T10:47:00.993Z,2.25
2022-07-29T10:49:31.119Z,1.90
2022-07-29T10:52:08.220Z,2.28
2022-07-29T10:54:39.702Z,2.20
2022-07-29T10:57:52.999Z,2.10
2022-07-29T11:00:28.966Z,1.80
2022-07-29T11:02:57.562Z,2.10
2022-07-29T11:05:40.105Z,2.30
2022-07-29T11:08:20.157Z,2.00
2022-07-29T11:11:15.874Z,2.50
2022-07-29T11:13:44.289Z,1.90
2022-07-29T11:16:11.419Z,2.15
2022-07-29T11:19:13.918Z,2.10
2022-07-29T11:21:53.448Z,1.80
2022-07-29T11:24:33.210Z,2.40
2022-07-29T11:27:10.880Z,2.20
2022-07-29T11:29:52.174Z,1.92
2022-07-29T11:32:22.652Z,2.00
2022-07-29T11:35:17.370Z,1.90
2022-07-29T11:38:08.581Z,2.35
2022-07-29T11:40:38.611Z,2.42
2022-07-29T11:43:09.393Z,2.03
2022-07-29T11:45:47.179Z,2.10
2022-07-29T11:48:31.391Z,1.92
2022-07-29T11:51:00.546Z,2.03
2022-07-29T11:53:29.251Z,1.92
2022-07-29T11:56:00.436Z,2.13
2022-07-29T11:58:29.496Z,2.05
2022-07-29T12:00:57.681Z,2.00
2022-07-29T12:03:33.581Z,1.80
2022-07-29T12:06:02.598Z,2.10
2022-07-29T12:08:30.765Z,2.13
2022-07-29T12:10:57.788Z,1.73
2022-07-29T12:13:37.739Z,2.10
2022-07-29T12:16:05.571Z,2.38
2022-07-29T12:18:33.188Z,1.73
2022-07-29T12:21:04.660Z,2.00
2022-07-29T12:23:35.041Z,1.95
2022-07-29T12:26:07.608Z,2.10
2022-07-29T12:28:39.742Z,2.10
2022-07-29T12:31:08.208Z,2.28
2022-07-29T12:33:36.034Z,2.15
2022-07-29T12:36:10.486Z,2.08
2022-07-29T12:38:41.628Z,2.40
2022-07-29T12:41:08.818Z,1.75
2022-07-29T12:43:35.988Z,1.98
2022-07-29T12:46:14.875Z,1.95
2022-07-29T12:48:44.255Z,2.22
2022-07-29T12:51:13.346Z,2.05
2022-07-29T12:53:40.427Z,1.90
2022-07-29T12:56:40.620Z,2.08
2022-07-29T12:59:19.997Z,1.70
2022-07-29T13:01:50.148Z,1.83
2022-07-29T13:04:29.166Z,2.20
2022-07-29T13:07:01.442Z,1.92
2022-07-29T13:09:41.776Z,1.88
2022-07-29T13:12:13.835Z,1.90
2022-07-29T13:14:47.584Z,1.80
2022-07-29T13:17:23.948Z,1.60
2022-07-29T13:20:06.373Z,2.00
2022-07-29T13:22:36.800Z,1.77
2022-07-29T13:25:03.878Z,1.73
2022-07-29T13:27:33.259Z,1.77
2022-07-29T13:30:01.983Z,1.77
2022-07-29T13:32:30.932Z,1.77
2022-07-29T13:35:01.107Z,1.70
2022-07-29T13:37:30.662Z,1.63
2022-07-29T13:39:58.169Z,2.20
2022-07-29T13:42:25.909Z,1.80
2022-07-29T13:44:53.067Z,2.53
2022-07-29T13:47:20.777Z,2.03
2022-07-29T13:49:47.713Z,1.70
2022-07-29T13:52:15.151Z,1.80
2022-07-29T13:54:42.799Z,1.75
2022-07-29T13:57:11.943Z,1.88
2022-07-29T13:59:40.392Z,1.85
2022-07-29T14:02:07.739Z,2.10
2022-07-29T14:04:34.807Z,2.20
2022-07-29T14:07:03.724Z,1.90
2022-07-29T14:09:41.118Z,1.88
2022-07-29T14:12:09.501Z,1.80
2022-07-29T14:14:37.628Z,1.83
2022-07-29T14:17:07.222Z,1.88
2022-07-29T14:19:36.714Z,1.60
2022-07-29T14:22:05.931Z,1.83
2022-07-29T14:24:34.004Z,1.88
2022-07-29T14:27:04.702Z,1.70
2022-07-29T14:29:37.213Z,1.55
2022-07-29T14:32:09.066Z,1.90
2022-07-29T14:34:40.026Z,1.90
2022-07-29T14:37:07.331Z,1.73
2022-07-29T14:39:42.077Z,1.40
2022-07-29T14:42:12.331Z,1.55
2022-07-29T14:44:41.362Z,1.50
2022-07-29T14:47:08.485Z,1.70
2022-07-29T14:49:36.097Z,1.77
2022-07-29T14:52:03.424Z,1.67
2022-07-29T14:54:30.558Z,1.52
2022-07-29T14:56:58.509Z,1.50
2022-07-29T14:59:26.181Z,1.35
2022-07-29T15:01:53.499Z,1.75
2022-07-29T15:04:21.164Z,1.50
2022-07-29T15:06:48.136Z,1.80
2022-07-29T15:09:15.069Z,1.73
2022-07-29T15:11:41.901Z,1.55
2022-07-29T15:14:08.686Z,1.80
2022-07-29T15:16:41.958Z,1.52
2022-07-29T15:19:11.585Z,1.77
2022-07-29T15:21:48.066Z,2.08
2022-07-29T15:24:19.711Z,1.73
2022-07-29T15:26:47.295Z,1.98
2022-07-29T15:29:14.544Z,1.90
2022-07-29T15:31:41.413Z,1.88
2022-07-29T15:34:08.328Z,1.73
2022-07-29T15:36:51.402Z,2.00
2022-07-29T15:39:19.794Z,2.13
2022-07-29T15:41:46.949Z,1.80
2022-07-29T15:44:13.854Z,2.28
2022-07-29T15:46:59.604Z,2.05
2022-07-29T15:49:48.405Z,2.08
2022-07-29T15:52:24.753Z,2.15
2022-07-29T15:54:54.438Z,2.60
2022-07-29T15:57:21.342Z,2.00
2022-07-29T15:59:48.122Z,1.80
2022-07-29T16:02:14.890Z,2.05
2022-07-29T16:04:41.660Z,2.03
2022-07-29T16:07:08.509Z,2.28
2022-07-29T16:09:35.304Z,2.25
2022-07-29T16:12:02.112Z,1.58
2022-07-29T16:14:31.876Z,1.45
2022-07-29T16:16:58.905Z,1.50
2022-07-29T16:19:25.854Z,1.60
2022-07-29T16:21:55.887Z,1.70
2022-07-29T16:24:29.641Z,1.77
2022-07-29T16:26:57.542Z,2.30
2022-07-29T16:29:24.530Z,2.33
2022-07-29T16:31:51.392Z,2.13
2022-07-29T16:34:18.254Z,1.95
2022-07-29T16:36:47.840Z,1.90
2022-07-29T16:39:14.822Z,2.30
2022-07-29T16:41:42.285Z,1.98
2022-07-29T16:44:09.308Z,2.00
2022-07-29T16:46:37.373Z,1.67
2022-07-29T16:49:05.986Z,2.13
2022-07-29T16:51:32.823Z,1.90
2022-07-29T16:53:59.647Z,2.70
2022-07-29T16:56:26.396Z,2.20
2022-07-29T16:58:53.178Z,1.98
2022-07-29T17:01:20.018Z,2.22
2022-07-29T17:04:05.484Z,2.20
2022-07-29T17:06:39.670Z,2.00
2022-07-29T17:09:08.619Z,2.17
2022-07-29T17:11:53.593Z,1.83
2022-07-29T17:14:29.514Z,2.13
2022-07-29T17:17:03.143Z,2.40
2022-07-29T17:19:32.692Z,2.50
2022-07-29T17:22:13.074Z,2.30
2022-07-29T17:24:45.537Z,2.20
2022-07-29T17:27:12.663Z,2.30
2022-07-29T17:29:39.819Z,2.63
2022-07-29T17:32:08.988Z,2.60
2022-07-29T17:34:40.435Z,2.30
2022-07-29T17:37:09.684Z,2.42
2022-07-29T17:39:41.330Z,2.28
2022-07-29T17:42:09.783Z,2.45
2022-07-29T17:44:36.874Z,2.35
2022-07-29T17:47:05.631Z,2.55
2022-07-29T17:49:36.360Z,2.30
2022-07-29T17:52:05.012Z,2.03
2022-07-29T17:54:31.811Z,2.05
2022-07-29T17:56:58.828Z,2.20
2022-07-29T17:59:25.780Z,2.67
2022-07-29T18:01:53.217Z,2.42
2022-07-29T18:04:21.130Z,2.38
2022-07-29T18:06:47.974Z,2.65
2022-07-29T18:09:14.740Z,2.53
2022-07-29T18:11:44.450Z,2.42
2022-07-29T18:14:13.352Z,2.70
2022-07-29T18:16:40.635Z,2.80
2022-07-29T18:19:07.537Z,2.70
2022-07-29T18:21:45.784Z,2.50
2022-07-29T18:24:22.891Z,2.53
2022-07-29T18:26:49.623Z,2.50
2022-07-29T18:29:16.370Z,2.75
2022-07-29T18:31:43.214Z,2.63
2022-07-29T18:34:09.989Z,2.40
2022-07-29T18:36:37.097Z,2.80
2022-07-29T18:39:04.201Z,2.40
2022-07-29T18:41:31.369Z,3.03
2022-07-29T18:43:58.162Z,2.80
2022-07-29T18:46:25.449Z,2.88
2022-07-29T18:48:52.598Z,3.25
2022-07-29T18:51:19.477Z,2.97
2022-07-29T18:53:46.329Z,2.90
2022-07-29T18:56:13.177Z,3.33
2022-07-29T18:58:39.952Z,3.28
2022-07-29T19:01:07.430Z,2.88
2022-07-29T19:03:34.352Z,2.95
2022-07-29T19:06:01.176Z,2.80
2022-07-29T19:08:28.027Z,3.40
2022-07-29T19:10:54.805Z,2.80
2022-07-29T19:13:21.577Z,3.15
2022-07-29T19:15:48.393Z,3.05
2022-07-29T19:18:15.274Z,2.97
2022-07-29T19:20:42.189Z,2.70
2022-07-29T19:23:09.310Z,3.10
2022-07-29T19:25:36.138Z,2.42
2022-07-29T19:28:03.436Z,2.95
2022-07-29T19:30:30.221Z,2.63
2022-07-29T19:32:57.049Z,2.55
2022-07-29T19:35:32.849Z,2.45
2022-07-29T19:38:01.298Z,2.53
2022-07-29T19:40:29.061Z,2.47
2022-07-29T19:42:56.236Z,2.25
2022-07-29T19:45:24.873Z,2.78
2022-07-29T19:47:54.008Z,2.97
2022-07-29T19:50:22.902Z,2.55
2022-07-29T19:52:49.669Z,2.60
2022-07-29T19:55:16.599Z,2.80
2022-07-29T19:57:46.690Z,2.78
2022-07-29T20:00:15.528Z,2.70
2022-07-29T20:02:42.864Z,2.55
2022-07-29T20:05:10.603Z,2.60
2022-07-29T20:07:37.896Z,3.08
2022-07-29T20:10:06.497Z,2.75
2022-07-29T20:12:33.358Z,2.35
2022-07-29T20:15:00.188Z,3.00
2022-07-29T20:17:28.448Z,2.70
2022-07-29T20:19:56.336Z,2.78
2022-07-29T20:22:23.168Z,2.70
2022-07-29T20:24:50.727Z,3.72
2022-07-29T20:27:18.300Z,2.70
2022-07-29T20:29:45.104Z,2.40
2022-07-29T20:32:12.503Z,2.60
2022-07-29T20:34:41.296Z,3.00
2022-07-29T20:37:11.303Z,3.30
2022-07-29T20:39:38.050Z,3.33
2022-07-29T20:42:05.088Z,3.22
2022-07-29T20:44:32.193Z,2.78
2022-07-29T20:46:59.313Z,4.00
2022-07-29T20:49:26.633Z,3.05
2022-07-29T20:51:53.524Z,4.10
2022-07-29T20:54:20.267Z,3.38
2022-07-29T20:56:47.045Z,4.18
2022-07-29T20:59:13.813Z,3.92
2022-07-29T21:01:41.090Z,3.47
2022-07-29T21:04:07.995Z,4.03
2022-07-29T21:06:35.010Z,3.80
2022-07-29T21:09:01.946Z,3.60
2022-07-29T21:11:43.837Z,4.03
2022-07-29T21:14:30.279Z,4.33
2022-07-29T21:16:57.293Z,4.47
2022-07-29T21:19:24.258Z,4.40
2022-07-29T21:21:51.086Z,4.25
2022-07-29T21:24:19.117Z,4.40
2022-07-29T21:26:54.530Z,4.03
2022-07-29T21:29:31.703Z,4.27
2022-07-29T21:31:58.465Z,3.95
2022-07-29T21:34:27.982Z,3.90
2022-07-29T21:36:54.937Z,4.25
2022-07-29T21:39:21.722Z,4.47
2022-07-29T21:41:48.730Z,4.60
2022-07-29T21:44:15.452Z,4.78
2022-07-29T21:46:42.262Z,4.25
2022-07-29T21:49:09.032Z,4.68
2022-07-29T21:51:35.870Z,4.30
2022-07-29T21:54:03.730Z,4.07
2022-07-29T21:56:31.493Z,4.30
2022-07-29T21:58:58.370Z,3.80
2022-07-29T22:01:25.194Z,4.63
2022-07-29T22:03:52.057Z,4.30
2022-07-29T22:06:19.629Z,3.90
2022-07-29T22:08:47.906Z,4.00
2022-07-29T22:11:14.961Z,4.25
2022-07-29T22:13:41.721Z,4.18
2022-07-29T22:16:10.164Z,4.32
2022-07-29T22:18:36.914Z,4.22
2022-07-29T22:21:03.750Z,3.58
2022-07-29T22:23:30.989Z,3.80
2022-07-29T22:25:57.778Z,3.55
2022-07-29T22:28:24.553Z,4.20
2022-07-29T22:30:51.351Z,3.30
2022-07-29T22:33:18.351Z,3.13
2022-07-29T22:35:48.720Z,3.25
2022-07-29T22:38:19.448Z,3.73
2022-07-29T22:40:48.766Z,4.10
2022-07-29T22:43:17.498Z,4.50
2022-07-29T22:45:44.462Z,4.47
2022-07-29T22:48:11.646Z,4.28
2022-07-29T22:50:39.008Z,4.50
2022-07-29T22:53:05.998Z,4.30
2022-07-29T22:55:32.839Z,4.15
2022-07-29T22:57:59.626Z,4.13
2022-07-29T23:00:26.501Z,5.10
2022-07-29T23:02:53.294Z,4.60
2022-07-29T23:05:20.106Z,4.77
2022-07-29T23:07:46.872Z,4.60
2022-07-29T23:10:13.667Z,4.50
2022-07-29T23:12:40.401Z,4.77
2022-07-29T23:15:07.867Z,4.90
2022-07-29T23:17:36.266Z,5.90
2022-07-29T23:20:08.890Z,6.40
2022-07-29T23:22:36.889Z,5.30
2022-07-29T23:25:04.948Z,6.03
2022-07-29T23:27:32.116Z,6.07
2022-07-29T23:29:58.985Z,6.10
2022-07-29T23:32:25.762Z,6.23
2022-07-29T23:34:52.479Z,5.93
2022-07-29T23:37:19.240Z,5.77
2022-07-29T23:39:46.028Z,6.55
2022-07-29T23:42:12.833Z,6.23
2022-07-29T23:44:39.616Z,6.10
2022-07-29T23:47:06.554Z,5.35
2022-07-29T23:49:33.379Z,3.97
2022-07-29T23:52:00.169Z,4.97
2022-07-29T23:54:26.917Z,5.97
2022-07-29T23:56:53.752Z,6.35
2022-07-29T23:59:20.562Z,6.03
